Terminal Aerodrome Forecast
Issued by NWS

Home | Current Version | Previous Version | Text Only | Print | Product List | Glossary On
Versions: 1 2 3 4 5 6 7 8 9 10 11 12 13 14 15 16 17 18 19 20 21 22 23
000
FTUS46 KEKA 250953 AAB
TAFUKI
TAF AMD
KUKI 250953Z 2510/2606 16015G23KT 3SM -RA BKN015 OVC030
     FM251600 16010KT P6SM -RA SCT015 OVC030
     FM252000 17015KT P6SM -SHRA OVC050 PROB30 2520/2523 P6SM -TSRA
      BKN025CB
     FM260300 26003KT P6SM BKN100=

USA.gov is the U.S. government's official web portal to all federal, state and local government web resources and services.